Kezdőlap
METAR-TAF:

METAR-TAF

Repülőterek :

Stanton, Minnesota, Amerikai Egyesült Államok

földrajzi szélesség: 44-28-32N, földrajzi hosszúság: 093-00-59W, magasság: 280 m

Jelenlegi meteorológiai megfigyelések

A jelentés 18 perccel ezelõtt készült, 15:35 UTC
Észak-északnyugati szél 14 kt
Hőmérséklet 12°C
Páratartalom 67%
Légköri nyomás 1020 hPa
Látótávolság: 16.1 km
Szórványos felhőzet 2600 lábon
Szakadozott felhőzet 4200 lábon
Szakadozott felhőzet 7500 lábon

METAR: KSYN 011535Z AUTO 33014KT 10SM SCT026 BKN042 BKN075 12/06 A3012 RMK AO2 T01180059

Idő: 10:53 (15:53 UTC)


TAF: hiányzik

Meteorológiai megfigyelések és előrejelzések több, mint 4000 repülőtéren (METAR és TAF jelentéseket).

A térképen piros és sárga pontok jelzik az elérhető meteorológiai állomásokat.

Mozgassa az egeret a pont fölött, hogy megjelenjen az állomás neve.

Azután kattintson az időjárási megfigyelések és előrejelzések megtekintéséhez.

A térkép megváltoztatása: kattintson a fekete keresztel jelölt zöld gombra ráközelítéshez, a vonallal jelölt zöld gombra távolításhoz, vagy a zöld nyilakra a szomszédos térképek eléréséhez.


METAR-TAF: